Time;durP1;ratioP1;P1;durP2;ratioP2;P2;SDS_P1;SDS_P2;PMS_P1;PMS_P2;Temp;Humidity;BMP_temperature;BMP_pressure;BME280_temperature;BME280_humidity;BME280_pressure;Samples;Min_cycle;Max_cycle;Signal;HPM_P1;HPM_P2
2022/01/28 00:01:05;;;;;;;14.02;9.13;;;3.50;90.40;;;;;;5012524;28;20234;-63
2022/01/28 00:03:34;;;;;;;11.15;8.02;;;3.60;90.40;;;;;;5013970;28;20203;-57
2022/01/28 00:06:02;;;;;;;9.70;7.40;;;3.70;89.80;;;;;;5013975;28;20213;-58
2022/01/28 00:08:29;;;;;;;9.10;8.13;;;3.60;89.40;;;;;;5013938;28;20203;-58
2022/01/28 00:10:56;;;;;;;12.60;8.52;;;3.60;89.80;;;;;;5014084;28;20249;-62
2022/01/28 00:13:28;;;;;;;10.43;7.38;;;3.60;89.50;;;;;;5013788;28;20618;-58
2022/01/28 00:38:06;;;;;;;8.73;7.25;;;3.10;90.40;;;;;;5013191;28;20205;-58
2022/01/28 00:40:34;;;;;;;7.90;7.13;;;3.10;89.70;;;;;;5013094;28;20634;-57
2022/01/28 00:43:01;;;;;;;11.13;7.78;;;3.10;90.10;;;;;;5013406;28;20753;-63
2022/01/28 00:45:28;;;;;;;8.98;8.07;;;3.20;90.00;;;;;;5012015;28;20665;-57
2022/01/28 00:47:55;;;;;;;11.90;8.40;;;3.20;89.30;;;;;;5013324;28;20254;-58
2022/01/28 00:50:22;;;;;;;14.10;8.98;;;3.30;89.60;;;;;;5013213;28;20286;-60
2022/01/28 00:52:49;;;;;;;8.82;7.97;;;3.30;89.10;;;;;;5013326;28;20207;-66
2022/01/28 00:55:17;;;;;;;8.45;7.65;;;3.30;89.10;;;;;;5013147;28;20211;-62
2022/01/28 00:57:44;;;;;;;9.50;8.50;;;3.50;88.90;;;;;;5013212;28;20682;-69
2022/01/28 01:00:12;;;;;;;8.73;7.55;;;3.50;88.50;;;;;;5011745;28;20325;-64
2022/01/28 01:02:39;;;;;;;9.75;8.45;;;3.40;88.30;;;;;;5013160;28;20213;-58
2022/01/28 01:05:08;;;;;;;10.05;8.70;;;3.40;88.30;;;;;;5013134;28;20808;-61
2022/01/28 01:07:34;;;;;;;9.50;8.13;;;3.30;88.30;;;;;;5013034;28;20282;-64
2022/01/28 01:10:02;;;;;;;10.45;7.95;;;3.30;88.70;;;;;;5013043;28;20639;-66
2022/01/28 01:12:32;;;;;;;8.80;7.90;;;3.40;88.50;;;;;;5013098;28;20636;-59
2022/01/28 01:15:00;;;;;;;8.57;7.78;;;3.30;88.00;;;;;;5011593;28;20206;-57
2022/01/28 01:17:32;;;;;;;9.88;7.80;;;3.20;88.30;;;;;;5013088;28;20688;-61
2022/01/28 01:22:50;;;;;;;11.68;8.60;;;3.30;88.50;;;;;;5012681;28;20203;-59
2022/01/28 01:25:24;;;;;;;7.47;6.88;;;3.30;88.10;;;;;;5012919;28;20202;-60
2022/01/28 01:27:55;;;;;;;8.93;8.00;;;3.30;88.10;;;;;;5012996;28;20207;-60
2022/01/28 01:30:23;;;;;;;10.15;8.80;;;3.30;87.80;;;;;;5011430;28;20252;-66
2022/01/28 01:32:49;;;;;;;9.43;8.43;;;3.20;87.90;;;;;;5012847;28;20199;-59
2022/01/28 01:35:16;;;;;;;8.13;7.40;;;3.20;88.30;;;;;;5012871;28;20210;-62
2022/01/28 01:37:43;;;;;;;9.35;8.40;;;3.20;88.00;;;;;;5012919;28;20309;-64
2022/01/28 01:40:12;;;;;;;9.02;8.13;;;3.20;88.20;;;;;;5012615;28;20599;-62
2022/01/28 01:42:47;;;;;;;9.25;8.20;;;3.10;87.70;;;;;;5012836;28;20215;-70
2022/01/28 01:53:26;;;;;;;9.60;8.45;;;2.90;88.60;;;;;;5016353;28;20703;-66
2022/01/28 01:55:53;;;;;;;9.48;7.70;;;3.00;88.60;;;;;;5016464;28;20641;-61
2022/01/28 01:58:25;;;;;;;7.15;6.45;;;3.00;88.40;;;;;;5016442;28;20226;-63
2022/01/28 02:00:53;;;;;;;10.77;8.45;;;2.90;88.70;;;;;;5014842;28;20257;-60
2022/01/28 02:03:20;;;;;;;7.70;6.82;;;2.90;88.80;;;;;;5016277;28;20203;-59
2022/01/28 02:05:47;;;;;;;8.75;7.15;;;3.00;88.70;;;;;;5016227;28;20565;-60
2022/01/28 02:08:13;;;;;;;8.45;7.07;;;3.00;88.50;;;;;;5016092;28;20203;-59
2022/01/28 02:10:40;;;;;;;8.55;6.80;;;2.90;88.80;;;;;;5016125;28;20211;-61
2022/01/28 02:13:07;;;;;;;8.00;6.20;;;2.90;88.90;;;;;;5016137;28;20209;-64
2022/01/28 02:15:34;;;;;;;10.00;6.50;;;2.90;89.00;;;;;;5014574;28;20289;-58
2022/01/28 02:18:02;;;;;;;9.57;6.10;;;2.90;88.30;;;;;;5016013;28;20253;-59
2022/01/28 02:20:34;;;;;;;8.75;5.70;;;2.90;88.50;;;;;;5015935;28;20709;-60
2022/01/28 02:23:01;;;;;;;8.70;5.50;;;2.90;88.50;;;;;;5015976;28;20280;-58
2022/01/28 02:25:31;;;;;;;7.00;5.50;;;3.00;88.50;;;;;;5015874;28;20302;-59
2022/01/28 02:28:02;;;;;;;5.72;4.93;;;3.10;88.30;;;;;;5015841;28;20654;-62
2022/01/28 02:30:29;;;;;;;7.78;5.55;;;3.10;87.40;;;;;;5014412;28;20264;-59
2022/01/28 02:33:01;;;;;;;8.55;5.38;;;3.10;87.50;;;;;;5015766;28;20199;-57
2022/01/28 02:35:28;;;;;;;8.15;5.95;;;3.00;87.70;;;;;;5015665;28;20234;-61
2022/01/28 02:37:57;;;;;;;6.05;4.85;;;3.00;87.80;;;;;;5015710;28;20281;-58
2022/01/28 02:40:24;;;;;;;7.25;5.10;;;2.90;88.00;;;;;;5015455;28;20587;-56
2022/01/28 02:42:58;;;;;;;8.02;6.13;;;3.00;88.00;;;;;;5015756;28;20203;-58
2022/01/28 02:45:29;;;;;;;7.90;6.63;;;3.10;87.70;;;;;;5013909;28;20209;-57
2022/01/28 02:48:00;;;;;;;8.68;5.75;;;3.30;87.80;;;;;;5015351;28;20653;-59
2022/01/28 02:50:30;;;;;;;5.60;4.75;;;3.20;86.60;;;;;;5015393;28;20654;-64
2022/01/28 02:53:07;;;;;;;8.90;6.13;;;3.00;86.80;;;;;;5015373;28;20662;-61
2022/01/28 02:55:39;;;;;;;7.63;4.65;;;3.00;87.10;;;;;;5015321;28;20658;-60
2022/01/28 02:58:19;;;;;;;8.07;5.30;;;2.90;87.60;;;;;;5015170;28;20676;-62
2022/01/28 03:00:47;;;;;;;7.47;5.55;;;2.90;87.50;;;;;;5013445;28;20234;-57
2022/01/28 03:03:15;;;;;;;9.73;5.03;;;2.90;87.60;;;;;;5015203;28;20211;-58
2022/01/28 03:05:42;;;;;;;7.32;6.25;;;2.90;87.70;;;;;;5015175;28;20289;-58
2022/01/28 03:08:11;;;;;;;12.73;5.43;;;2.90;87.70;;;;;;5015053;28;20207;-58
2022/01/28 03:11:06;;;;;;;6.10;5.13;;;2.80;87.30;;;;;;5014985;28;20211;-57
2022/01/28 03:13:46;;;;;;;7.07;4.80;;;2.90;87.20;;;;;;5014996;28;20711;-57
2022/01/28 03:16:16;;;;;;;9.98;5.95;;;2.90;86.80;;;;;;5013487;28;20230;-59
2022/01/28 03:18:51;;;;;;;6.93;4.90;;;2.90;86.90;;;;;;5014912;28;20211;-62
2022/01/28 03:21:24;;;;;;;7.82;5.40;;;2.90;87.10;;;;;;5014698;28;20230;-63
2022/01/28 03:23:53;;;;;;;7.65;5.70;;;3.00;86.50;;;;;;5014716;28;20217;-65
2022/01/28 03:26:20;;;;;;;6.20;5.10;;;3.00;85.90;;;;;;5014776;28;20218;-60
2022/01/28 03:28:47;;;;;;;6.13;5.00;;;2.90;86.30;;;;;;5014739;28;20210;-59
2022/01/28 03:31:14;;;;;;;7.90;5.15;;;2.80;86.30;;;;;;5013222;28;20213;-63
2022/01/28 03:33:40;;;;;;;6.60;4.93;;;2.90;86.80;;;;;;5014486;28;20206;-63
2022/01/28 03:36:10;;;;;;;7.25;5.15;;;2.80;86.30;;;;;;5014440;28;20209;-62
2022/01/28 03:38:37;;;;;;;5.50;4.30;;;3.00;86.70;;;;;;5014582;28;20629;-57
2022/01/28 03:41:05;;;;;;;5.05;4.65;;;3.10;85.90;;;;;;5014210;28;20253;-59
2022/01/28 03:43:32;;;;;;;6.78;5.20;;;3.10;85.70;;;;;;5014503;28;20214;-57
2022/01/28 03:45:59;;;;;;;12.70;6.13;;;3.10;85.20;;;;;;5012895;28;20313;-61
2022/01/28 03:48:26;;;;;;;6.65;5.40;;;3.00;85.70;;;;;;5014166;28;20294;-60
2022/01/28 03:50:53;;;;;;;8.65;5.35;;;2.90;86.10;;;;;;5014282;28;20720;-60
2022/01/28 03:53:20;;;;;;;7.68;5.70;;;2.90;86.10;;;;;;5014268;28;20733;-59
2022/01/28 03:55:47;;;;;;;7.20;5.32;;;3.00;86.30;;;;;;5014241;28;20289;-59
2022/01/28 03:58:16;;;;;;;6.90;6.20;;;3.10;85.90;;;;;;5014159;28;20210;-59
2022/01/28 04:00:43;;;;;;;8.10;5.55;;;3.10;85.50;;;;;;5012615;28;20356;-61
2022/01/28 04:03:22;;;;;;;8.20;5.90;;;3.10;85.60;;;;;;5014052;28;20207;-59
2022/01/28 04:11:28;;;;;;;7.30;5.70;;;3.10;85.20;;;;;;5014177;28;20198;-65
2022/01/28 04:11:51;;;;;;;8.38;6.35;;;2.90;86.10;;;;;;5013266;28;20221;-59
2022/01/28 04:14:34;;;;;;;7.25;5.30;;;2.90;85.70;;;;;;5013976;28;20293;-63
2022/01/28 04:17:20;;;;;;;8.18;6.50;;;2.90;86.40;;;;;;5012344;28;20202;-63
2022/01/28 04:19:48;;;;;;;9.30;5.80;;;3.00;86.00;;;;;;5013743;28;20226;-61
2022/01/28 04:22:15;;;;;;;10.02;6.53;;;3.00;85.70;;;;;;5013799;28;20658;-57
2022/01/28 04:24:42;;;;;;;7.97;5.80;;;3.10;85.80;;;;;;5013678;28;20293;-57
2022/01/28 04:27:09;;;;;;;7.38;6.30;;;3.00;85.30;;;;;;5013683;28;20571;-59
2022/01/28 04:29:37;;;;;;;7.35;6.15;;;2.90;85.80;;;;;;5013646;28;20293;-61
2022/01/28 04:32:05;;;;;;;7.82;6.07;;;2.90;86.00;;;;;;5012152;28;20207;-57
2022/01/28 04:34:32;;;;;;;8.90;6.72;;;2.80;86.10;;;;;;5013687;28;20206;-57
2022/01/28 04:37:07;;;;;;;9.77;6.07;;;2.80;86.60;;;;;;5013478;28;20688;-56
2022/01/28 04:39:41;;;;;;;8.60;6.22;;;2.90;86.60;;;;;;5013285;28;20245;-58
2022/01/28 04:42:17;;;;;;;10.10;7.00;;;2.90;86.40;;;;;;5013505;28;20337;-62
2022/01/28 04:44:56;;;;;;;10.60;6.50;;;3.00;85.90;;;;;;5012827;28;20242;-57
2022/01/28 04:47:30;;;;;;;9.13;7.10;;;2.90;86.00;;;;;;5013149;28;20213;-59
2022/01/28 04:50:06;;;;;;;8.90;6.43;;;2.90;86.10;;;;;;5013380;28;20237;-58
2022/01/28 04:52:54;;;;;;;9.02;6.30;;;3.00;86.10;;;;;;5013307;28;20210;-56
2022/01/28 04:55:40;;;;;;;6.95;5.72;;;3.10;85.60;;;;;;5013279;28;20206;-57
2022/01/28 04:58:21;;;;;;;8.65;5.85;;;3.00;85.60;;;;;;5013267;28;20214;-56
2022/01/28 05:01:01;;;;;;;7.35;5.60;;;3.00;85.90;;;;;;5011643;28;20226;-57
2022/01/28 05:03:50;;;;;;;9.70;6.07;;;3.10;85.50;;;;;;5013069;28;20203;-60
2022/01/28 05:11:58;;;;;;;7.82;5.93;;;3.30;84.60;;;;;;5013229;28;20206;-57
2022/01/28 05:14:49;;;;;;;9.90;6.40;;;3.20;84.50;;;;;;5013067;28;20654;-62
2022/01/28 05:25:48;;;;;;;8.50;5.80;;;3.00;85.80;;;;;;5017012;28;20209;-62
2022/01/28 05:28:18;;;;;;;7.68;6.13;;;3.00;85.40;;;;;;5016933;28;20242;-60
2022/01/28 05:30:45;;;;;;;8.70;6.50;;;3.00;85.50;;;;;;5015562;28;20368;-59
2022/01/28 05:33:13;;;;;;;9.07;6.32;;;2.90;85.90;;;;;;5017039;28;20198;-56
2022/01/28 05:35:40;;;;;;;6.50;5.22;;;3.00;86.00;;;;;;5017041;28;20213;-59
2022/01/28 05:38:07;;;;;;;9.73;6.00;;;3.00;85.90;;;;;;5016729;28;20203;-60
2022/01/28 05:40:34;;;;;;;9.02;6.10;;;3.00;85.50;;;;;;5016467;28;20240;-61
2022/01/28 05:43:00;;;;;;;7.45;5.63;;;3.00;85.60;;;;;;5016576;28;20289;-58
2022/01/28 05:45:27;;;;;;;9.30;6.63;;;3.10;85.60;;;;;;5015309;28;20229;-58
2022/01/28 05:47:54;;;;;;;10.13;6.82;;;3.10;85.10;;;;;;5016418;28;20203;-60
2022/01/28 05:50:22;;;;;;;9.10;6.32;;;2.90;85.20;;;;;;5016615;28;20565;-56
2022/01/28 05:52:49;;;;;;;11.32;6.20;;;2.80;85.80;;;;;;5016564;28;20211;-56
2022/01/28 05:55:16;;;;;;;10.45;6.80;;;2.90;86.30;;;;;;5016413;28;20237;-61
2022/01/28 05:57:43;;;;;;;6.97;5.97;;;2.90;85.90;;;;;;5016332;28;20209;-59
2022/01/28 06:00:11;;;;;;;9.57;6.47;;;2.90;85.90;;;;;;5015026;28;20539;-60
2022/01/28 06:02:38;;;;;;;8.93;6.15;;;2.90;85.70;;;;;;5016115;28;20239;-59
2022/01/28 06:05:05;;;;;;;9.43;6.20;;;2.90;86.10;;;;;;5016227;28;20740;-57
2022/01/28 06:07:33;;;;;;;12.52;6.18;;;2.80;86.10;;;;;;5016243;28;20293;-59
2022/01/28 06:10:00;;;;;;;10.70;6.90;;;2.90;86.10;;;;;;5015996;28;20695;-59
2022/01/28 06:12:27;;;;;;;12.52;6.90;;;2.90;86.10;;;;;;5016077;28;20217;-56
2022/01/28 06:14:54;;;;;;;10.35;7.05;;;2.90;86.30;;;;;;5014730;28;20213;-58
2022/01/28 06:17:21;;;;;;;9.73;6.80;;;2.90;86.00;;;;;;5015954;28;20309;-57
2022/01/28 06:19:47;;;;;;;8.10;6.40;;;2.90;86.10;;;;;;5015985;28;20206;-57
2022/01/28 06:22:14;;;;;;;10.00;6.38;;;2.90;85.90;;;;;;5015877;28;20248;-59
2022/01/28 06:24:42;;;;;;;7.20;5.97;;;3.00;85.80;;;;;;5015967;28;20202;-57
2022/01/28 06:27:09;;;;;;;12.10;6.60;;;3.00;85.10;;;;;;5015723;28;20297;-61
2022/01/28 06:29:36;;;;;;;9.25;6.57;;;2.90;85.00;;;;;;5015779;28;20684;-58
2022/01/28 06:32:04;;;;;;;11.02;6.00;;;2.80;85.50;;;;;;5014425;28;20203;-58
2022/01/28 06:34:32;;;;;;;11.70;6.70;;;2.70;86.00;;;;;;5015102;28;20213;-58
2022/01/28 06:36:59;;;;;;;11.73;6.40;;;2.70;86.20;;;;;;5015604;28;20207;-56
2022/01/28 06:39:25;;;;;;;11.75;7.07;;;2.70;86.70;;;;;;5015259;28;20235;-60
2022/01/28 06:41:54;;;;;;;13.95;7.03;;;2.70;86.50;;;;;;5015556;28;20324;-60
2022/01/28 06:44:21;;;;;;;9.90;6.40;;;2.60;86.90;;;;;;5015539;28;20656;-58
2022/01/28 06:46:47;;;;;;;10.45;6.82;;;2.70;86.90;;;;;;5014078;28;20299;-61
2022/01/28 06:49:14;;;;;;;10.35;6.90;;;2.80;86.40;;;;;;5015437;28;20207;-58
2022/01/28 06:51:41;;;;;;;10.07;7.53;;;2.90;86.00;;;;;;5015347;28;20238;-60
2022/01/28 06:54:08;;;;;;;12.93;6.60;;;2.90;85.70;;;;;;5015217;28;20206;-61
2022/01/28 06:56:35;;;;;;;10.10;6.70;;;2.80;85.90;;;;;;5015378;28;20199;-58
2022/01/28 06:59:03;;;;;;;15.45;8.00;;;2.80;86.20;;;;;;5015338;28;20290;-57
2022/01/28 07:01:30;;;;;;;9.30;6.45;;;2.80;86.00;;;;;;5013778;28;20227;-60
2022/01/28 07:03:57;;;;;;;9.82;6.85;;;2.60;86.00;;;;;;5015077;28;20210;-58
2022/01/28 07:06:24;;;;;;;14.40;8.18;;;2.50;87.00;;;;;;5014987;28;20629;-58
2022/01/28 07:08:51;;;;;;;14.25;8.35;;;2.50;87.30;;;;;;5014989;28;20289;-59
2022/01/28 07:11:18;;;;;;;11.15;7.25;;;2.40;87.80;;;;;;5015074;28;20217;-60
2022/01/28 07:13:45;;;;;;;13.25;6.72;;;2.50;88.20;;;;;;5015013;28;20684;-61
2022/01/28 07:16:13;;;;;;;14.27;7.90;;;2.40;88.00;;;;;;5013455;28;20225;-60
2022/01/28 07:18:43;;;;;;;10.95;6.82;;;2.30;88.10;;;;;;5014974;28;20207;-57
2022/01/28 07:21:10;;;;;;;12.45;7.30;;;2.40;88.20;;;;;;5014664;28;20285;-62
2022/01/28 07:23:37;;;;;;;10.95;6.93;;;2.30;88.00;;;;;;5014789;28;20727;-58
2022/01/28 07:26:03;;;;;;;10.40;7.85;;;2.30;88.00;;;;;;5014751;28;20290;-63
2022/01/28 07:28:31;;;;;;;13.15;6.60;;;2.40;88.00;;;;;;5014572;28;20211;-57
2022/01/28 07:30:58;;;;;;;12.82;7.93;;;2.40;87.60;;;;;;5013421;28;20682;-62
2022/01/28 07:33:26;;;;;;;13.13;7.30;;;2.30;87.80;;;;;;5014427;28;20213;-59
2022/01/28 07:35:53;;;;;;;10.07;6.60;;;2.50;88.00;;;;;;5014510;28;20217;-60
2022/01/28 07:38:20;;;;;;;12.85;7.15;;;2.50;87.40;;;;;;5014507;28;20289;-57
2022/01/28 07:40:47;;;;;;;13.45;7.35;;;2.40;87.30;;;;;;5014252;28;20244;-58
2022/01/28 07:43:14;;;;;;;11.93;7.00;;;2.40;87.50;;;;;;5014317;28;20226;-57
2022/01/28 07:45:41;;;;;;;13.30;8.30;;;2.40;87.90;;;;;;5012666;28;20237;-56
2022/01/28 07:48:07;;;;;;;10.75;7.25;;;2.40;87.70;;;;;;5013654;28;20221;-57
2022/01/28 07:50:36;;;;;;;13.52;7.00;;;2.50;87.80;;;;;;5014243;28;20210;-56
2022/01/28 07:53:03;;;;;;;10.40;6.20;;;2.70;87.80;;;;;;5014172;28;20572;-57
2022/01/28 07:55:30;;;;;;;10.40;6.78;;;2.80;86.90;;;;;;5014271;28;20217;-58
2022/01/28 07:57:57;;;;;;;13.02;7.10;;;2.90;86.10;;;;;;5014156;28;20222;-56
2022/01/28 08:00:27;;;;;;;8.85;6.55;;;2.90;85.80;;;;;;5012930;28;20298;-59
2022/01/28 08:02:53;;;;;;;13.25;7.57;;;2.90;85.30;;;;;;5013593;28;20230;-56
2022/01/28 08:05:20;;;;;;;12.20;7.05;;;2.70;85.90;;;;;;5013965;28;20209;-56
2022/01/28 08:07:49;;;;;;;10.52;6.85;;;2.70;86.00;;;;;;5014060;28;20210;-57
2022/01/28 08:10:16;;;;;;;10.18;6.93;;;2.70;85.90;;;;;;5013937;28;20234;-57
2022/01/28 08:12:48;;;;;;;13.27;7.50;;;2.80;86.00;;;;;;5013930;28;20602;-57
2022/01/28 08:15:15;;;;;;;10.82;7.75;;;3.00;85.60;;;;;;5012554;28;20232;-56
2022/01/28 08:17:42;;;;;;;10.98;5.97;;;3.00;84.70;;;;;;5013682;28;20210;-57
2022/01/28 08:20:10;;;;;;;9.25;6.43;;;3.00;84.70;;;;;;5013768;28;20206;-57
2022/01/28 08:22:45;;;;;;;11.73;6.80;;;3.00;84.30;;;;;;5013674;28;20305;-60
2022/01/28 08:25:13;;;;;;;13.02;8.65;;;3.00;83.90;;;;;;5013693;28;20199;-57
2022/01/28 08:27:42;;;;;;;8.98;6.85;;;3.00;84.20;;;;;;5013525;28;20584;-58
2022/01/28 08:30:11;;;;;;;9.70;7.00;;;2.90;83.80;;;;;;5012310;28;20985;-59
2022/01/28 08:32:37;;;;;;;10.00;7.07;;;3.00;84.10;;;;;;5013380;28;20213;-59
2022/01/28 08:35:05;;;;;;;10.90;6.88;;;3.10;83.60;;;;;;5013498;28;20206;-56
2022/01/28 08:37:32;;;;;;;9.50;7.00;;;3.00;83.30;;;;;;5013495;28;20257;-57
2022/01/28 08:39:59;;;;;;;11.82;6.22;;;3.00;83.60;;;;;;5013397;28;20602;-57
2022/01/28 08:42:27;;;;;;;9.63;6.72;;;2.90;83.80;;;;;;5013247;28;20697;-56
2022/01/28 08:44:54;;;;;;;8.40;6.97;;;2.90;83.40;;;;;;5011991;28;20227;-56
2022/01/28 08:47:21;;;;;;;8.75;6.68;;;3.10;83.30;;;;;;5013336;28;20305;-58
2022/01/28 08:49:48;;;;;;;9.60;6.50;;;3.30;83.50;;;;;;5013310;28;20198;-59
2022/01/28 08:52:15;;;;;;;9.40;6.47;;;3.40;82.10;;;;;;5013334;28;20213;-55
2022/01/28 08:54:43;;;;;;;10.82;7.10;;;3.20;81.30;;;;;;5013242;28;20497;-57
2022/01/28 08:57:10;;;;;;;8.25;7.10;;;3.20;82.20;;;;;;5012829;28;20298;-58
2022/01/28 08:59:39;;;;;;;7.57;6.88;;;3.20;82.20;;;;;;5013096;28;20610;-56
2022/01/28 09:02:06;;;;;;;9.13;6.70;;;3.40;82.40;;;;;;5011660;28;20223;-61
2022/01/28 09:04:32;;;;;;;8.77;7.88;;;3.40;81.40;;;;;;5013169;28;20234;-58
2022/01/28 09:06:59;;;;;;;8.68;6.85;;;3.50;81.80;;;;;;5013018;28;20206;-56
2022/01/28 09:09:26;;;;;;;8.30;7.50;;;3.60;81.10;;;;;;5012802;28;20217;-61
2022/01/28 09:12:05;;;;;;;10.52;6.88;;;3.60;80.80;;;;;;5013035;28;20242;-55
2022/01/28 09:14:32;;;;;;;7.32;6.63;;;3.70;81.10;;;;;;5012977;28;20658;-59
2022/01/28 09:17:00;;;;;;;8.88;7.40;;;3.80;80.10;;;;;;5011653;28;20207;-58
2022/01/28 09:19:27;;;;;;;7.80;7.05;;;3.90;80.70;;;;;;5012973;28;20206;-58
2022/01/28 09:21:54;;;;;;;8.23;7.53;;;3.80;79.60;;;;;;5012752;28;20321;-59
2022/01/28 09:24:21;;;;;;;12.45;7.15;;;3.60;80.30;;;;;;5012630;28;20289;-56
2022/01/28 09:26:48;;;;;;;6.80;6.00;;;3.70;81.20;;;;;;5012745;28;20199;-61
2022/01/28 09:29:15;;;;;;;7.18;6.47;;;3.80;81.00;;;;;;5012707;28;20226;-57
2022/01/28 09:31:41;;;;;;;7.10;5.40;;;3.80;80.50;;;;;;5011443;28;20213;-60
2022/01/28 09:34:10;;;;;;;7.25;6.55;;;3.90;79.60;;;;;;5012930;28;20211;-60
2022/01/28 09:36:38;;;;;;;8.30;7.45;;;3.90;79.90;;;;;;5012705;28;20260;-56
2022/01/28 09:39:06;;;;;;;8.00;7.18;;;4.10;79.80;;;;;;5012557;28;20294;-56
2022/01/28 09:41:35;;;;;;;6.93;6.32;;;4.30;79.00;;;;;;5012775;28;20202;-59
2022/01/28 09:44:02;;;;;;;11.60;6.65;;;4.40;78.40;;;;;;5012681;28;20666;-56
2022/01/28 09:46:30;;;;;;;6.93;6.25;;;4.30;77.80;;;;;;5011368;28;20215;-57
2022/01/28 09:48:57;;;;;;;8.32;7.63;;;4.40;76.90;;;;;;5012773;28;20207;-56
2022/01/28 09:51:25;;;;;;;7.32;6.65;;;4.30;76.80;;;;;;5012603;28;20207;-56
2022/01/28 09:53:53;;;;;;;6.97;6.30;;;4.30;76.80;;;;;;5012648;28;20199;-57
2022/01/28 09:56:19;;;;;;;11.90;7.53;;;4.40;76.80;;;;;;5012668;28;20209;-58
2022/01/28 09:58:46;;;;;;;6.90;6.40;;;4.50;76.50;;;;;;5012683;28;20217;-55
2022/01/28 10:01:13;;;;;;;7.13;6.45;;;4.60;75.80;;;;;;5011271;28;20211;-58
2022/01/28 10:03:40;;;;;;;7.53;6.82;;;4.70;75.00;;;;;;5012376;28;20321;-57
2022/01/28 10:06:07;;;;;;;7.03;6.53;;;4.80;74.60;;;;;;5012366;28;20199;-56
2022/01/28 10:08:36;;;;;;;8.20;7.60;;;5.00;74.40;;;;;;5012625;28;20618;-57
2022/01/28 10:11:08;;;;;;;8.05;7.45;;;5.20;74.30;;;;;;5015392;28;20301;-57
2022/01/28 10:13:40;;;;;;;7.20;6.50;;;5.30;72.30;;;;;;5016207;28;20658;-57
2022/01/28 10:16:12;;;;;;;6.30;5.78;;;5.30;72.80;;;;;;5014718;28;20301;-56
2022/01/28 10:18:51;;;;;;;9.20;7.50;;;5.40;74.00;;;;;;5015859;28;20207;-57
2022/01/28 10:21:25;;;;;;;7.13;6.60;;;5.50;72.40;;;;;;5015918;28;20249;-57
2022/01/28 10:24:06;;;;;;;7.45;6.95;;;5.50;72.10;;;;;;5015796;28;20230;-61
2022/01/28 10:26:35;;;;;;;6.50;5.93;;;5.40;71.80;;;;;;5015873;28;20297;-56
2022/01/28 10:29:04;;;;;;;6.28;5.85;;;5.40;72.30;;;;;;5015573;28;20354;-57
2022/01/28 10:31:46;;;;;;;8.35;7.75;;;5.50;72.70;;;;;;5014524;28;20203;-55
2022/01/28 10:34:16;;;;;;;8.30;7.60;;;5.40;71.10;;;;;;5015833;28;20207;-60
2022/01/28 10:36:46;;;;;;;8.95;8.05;;;5.30;71.80;;;;;;5015728;28;20229;-56
2022/01/28 10:39:20;;;;;;;5.20;4.80;;;5.30;72.10;;;;;;5015375;28;20321;-57
2022/01/28 10:41:52;;;;;;;8.80;7.90;;;5.40;72.90;;;;;;5015478;28;20202;-56
2022/01/28 10:44:19;;;;;;;9.18;8.23;;;5.40;71.60;;;;;;5015387;28;20235;-57
2022/01/28 10:46:56;;;;;;;7.45;6.78;;;5.40;72.30;;;;;;5014088;28;20297;-60
2022/01/28 10:49:29;;;;;;;7.45;6.85;;;5.50;71.40;;;;;;5015439;28;20209;-60
2022/01/28 10:52:04;;;;;;;7.18;6.65;;;5.60;72.20;;;;;;5015309;28;20205;-56
2022/01/28 10:54:32;;;;;;;8.20;7.60;;;5.80;71.60;;;;;;5015266;28;20209;-60
2022/01/28 10:57:01;;;;;;;8.10;7.40;;;6.00;70.70;;;;;;5015200;28;20237;-56
2022/01/28 10:59:30;;;;;;;7.60;5.85;;;6.10;69.50;;;;;;5015245;28;20213;-60
2022/01/28 11:01:58;;;;;;;7.88;7.47;;;6.10;70.30;;;;;;5013711;28;20206;-61
2022/01/28 11:04:26;;;;;;;8.20;7.70;;;5.80;69.60;;;;;;5014891;28;20231;-58
2022/01/28 11:06:56;;;;;;;8.05;7.35;;;6.00;70.10;;;;;;5014947;28;20214;-57
2022/01/28 11:09:24;;;;;;;7.20;6.70;;;6.20;70.10;;;;;;5015035;28;20216;-59
2022/01/28 11:11:53;;;;;;;8.02;7.40;;;6.20;69.30;;;;;;5015050;28;20206;-61
2022/01/28 11:14:21;;;;;;;8.10;7.70;;;6.20;68.30;;;;;;5015012;28;20203;-61
2022/01/28 11:16:48;;;;;;;7.03;6.32;;;6.20;67.90;;;;;;5013409;28;20226;-57
2022/01/28 11:19:18;;;;;;;7.40;6.85;;;6.10;68.40;;;;;;5014912;28;20293;-54
2022/01/28 11:21:57;;;;;;;7.60;7.20;;;6.10;69.00;;;;;;5014841;28;20650;-58
2022/01/28 11:24:36;;;;;;;8.27;7.57;;;6.30;68.50;;;;;;5014702;28;20241;-60
2022/01/28 11:27:13;;;;;;;8.43;7.60;;;6.30;67.90;;;;;;5014795;28;20207;-58
2022/01/28 11:29:40;;;;;;;8.02;7.40;;;6.20;67.50;;;;;;5014638;28;20211;-62
2022/01/28 11:32:14;;;;;;;7.85;7.25;;;6.30;68.70;;;;;;5013300;28;20206;-56
2022/01/28 11:34:57;;;;;;;8.48;7.68;;;6.90;68.60;;;;;;5014606;28;20214;-60
2022/01/28 11:37:29;;;;;;;9.15;8.30;;;7.40;66.80;;;;;;5014590;28;20206;-60
2022/01/28 11:40:06;;;;;;;9.85;7.10;;;7.60;66.40;;;;;;5014181;28;20249;-60
2022/01/28 11:42:34;;;;;;;8.80;8.10;;;7.40;63.60;;;;;;5014351;28;20316;-58
2022/01/28 11:45:04;;;;;;;8.80;8.25;;;7.20;65.60;;;;;;5013041;28;20206;-60
2022/01/28 11:47:32;;;;;;;9.18;8.55;;;7.00;65.40;;;;;;5014140;28;20198;-59
2022/01/28 11:50:05;;;;;;;8.00;7.38;;;6.90;66.80;;;;;;5014202;28;20692;-59
2022/01/28 11:52:33;;;;;;;7.70;7.20;;;6.90;66.80;;;;;;5014318;28;20301;-58
2022/01/28 11:55:32;;;;;;;7.72;7.40;;;6.70;65.70;;;;;;5000976;28;20289;-60
2022/01/28 11:58:02;;;;;;;8.07;7.47;;;6.40;66.40;;;;;;4995263;28;20568;-57
2022/01/28 12:00:32;;;;;;;7.60;7.10;;;6.30;67.00;;;;;;5003337;28;20287;-59
2022/01/28 12:02:59;;;;;;;7.40;7.00;;;6.40;66.20;;;;;;5032665;28;20843;-58
2022/01/28 12:05:42;;;;;;;7.93;7.32;;;6.40;66.50;;;;;;5032904;28;20661;-60
2022/01/28 12:08:12;;;;;;;7.80;7.30;;;6.30;66.80;;;;;;5021180;28;20225;-59
2022/01/28 12:10:44;;;;;;;7.90;6.70;;;6.20;67.50;;;;;;5018479;28;20206;-57
2022/01/28 12:13:16;;;;;;;9.85;6.90;;;6.10;68.30;;;;;;5013585;28;20233;-59
2022/01/28 12:16:09;;;;;;;8.43;7.07;;;6.00;69.00;;;;;;5012466;28;20213;-55
2022/01/28 12:18:54;;;;;;;8.15;7.50;;;5.90;68.90;;;;;;5013418;28;20203;-56
2022/01/28 12:21:24;;;;;;;7.15;6.57;;;5.90;68.70;;;;;;5013693;28;20206;-55
2022/01/28 12:23:53;;;;;;;7.38;6.70;;;6.10;68.60;;;;;;5013625;28;20325;-58
2022/01/28 12:26:21;;;;;;;6.80;6.20;;;7.00;66.90;;;;;;5013761;28;20297;-60
2022/01/28 12:29:06;;;;;;;7.28;6.90;;;8.30;64.30;;;;;;5013607;28;20654;-56
2022/01/28 12:31:33;;;;;;;7.90;7.38;;;9.80;59.20;;;;;;5012277;28;20203;-56
2022/01/28 12:34:04;;;;;;;7.25;6.55;;;10.60;56.10;;;;;;5012811;28;20214;-59
2022/01/28 12:36:34;;;;;;;9.60;8.20;;;10.80;56.90;;;;;;5013457;28;20213;-58
2022/01/28 12:39:15;;;;;;;7.50;6.90;;;10.70;56.30;;;;;;5013416;28;20298;-57
2022/01/28 12:41:54;;;;;;;9.10;8.25;;;10.70;57.40;;;;;;5013443;28;20575;-59
2022/01/28 12:44:23;;;;;;;7.85;7.45;;;10.40;56.90;;;;;;5013196;28;20598;-57
2022/01/28 12:46:57;;;;;;;9.32;8.43;;;10.00;57.40;;;;;;5012150;28;20739;-56
2022/01/28 12:49:28;;;;;;;7.93;7.32;;;9.50;58.80;;;;;;5013110;28;20202;-59
2022/01/28 12:51:57;;;;;;;8.43;8.00;;;9.10;57.90;;;;;;5013089;28;20207;-59
2022/01/28 12:54:39;;;;;;;8.55;8.05;;;8.60;58.50;;;;;;5013320;28;20215;-55
2022/01/28 12:57:08;;;;;;;7.75;7.30;;;8.10;60.40;;;;;;5013137;28;20245;-55
2022/01/28 12:59:38;;;;;;;6.50;5.80;;;7.80;61.70;;;;;;5013176;28;20657;-54
2022/01/28 13:02:05;;;;;;;8.55;7.95;;;7.70;62.80;;;;;;5011763;28;20209;-58
2022/01/28 13:04:51;;;;;;;7.65;7.00;;;7.60;63.40;;;;;;5013056;28;20614;-54
2022/01/28 13:10:04;;;;;;;6.90;6.30;;;7.30;65.10;;;;;;5013031;28;20221;-58
2022/01/28 13:12:32;;;;;;;8.38;7.50;;;7.30;65.80;;;;;;5013143;28;20282;-58
2022/01/28 13:15:07;;;;;;;9.50;8.80;;;7.30;65.80;;;;;;5011763;28;20301;-58
2022/01/28 13:17:35;;;;;;;9.40;8.55;;;7.10;65.60;;;;;;5012917;28;20252;-57
2022/01/28 13:20:04;;;;;;;6.20;5.80;;;7.00;66.30;;;;;;5012704;28;20658;-55
2022/01/28 13:22:33;;;;;;;8.30;7.35;;;6.80;66.20;;;;;;5012931;28;20365;-59
2022/01/28 13:25:01;;;;;;;8.00;7.40;;;6.60;67.20;;;;;;5012936;28;20240;-59
2022/01/28 13:27:41;;;;;;;10.20;9.15;;;6.60;67.90;;;;;;5012931;28;20211;-59
2022/01/28 13:30:14;;;;;;;10.45;9.48;;;6.60;68.40;;;;;;5011640;28;20249;-57
2022/01/28 13:32:44;;;;;;;10.60;9.73;;;6.60;68.60;;;;;;5012631;28;20202;-56
2022/01/28 13:35:15;;;;;;;9.90;9.07;;;6.50;69.00;;;;;;5012659;28;20666;-58
2022/01/28 13:37:43;;;;;;;10.13;9.38;;;6.40;69.40;;;;;;5012789;28;20307;-58
2022/01/28 13:40:12;;;;;;;7.72;7.10;;;6.30;69.90;;;;;;5012608;28;20244;-57
2022/01/28 13:42:54;;;;;;;9.95;9.05;;;6.20;70.50;;;;;;5012628;28;20213;-58
2022/01/28 13:45:29;;;;;;;14.60;9.82;;;6.20;70.30;;;;;;5013442;28;20302;-58
2022/01/28 13:47:56;;;;;;;9.85;9.10;;;6.20;70.60;;;;;;5016267;28;20732;-60
2022/01/28 13:50:29;;;;;;;10.07;9.18;;;6.10;71.50;;;;;;5016614;28;20259;-57
2022/01/28 13:56:10;;;;;;;9.40;8.60;;;6.30;70.90;;;;;;5016197;28;20685;-59
2022/01/28 13:58:52;;;;;;;7.70;6.90;;;6.60;70.30;;;;;;5016547;28;20289;-58
2022/01/28 14:01:22;;;;;;;10.05;9.05;;;6.60;70.10;;;;;;5015033;28;20207;-59
2022/01/28 14:03:59;;;;;;;10.88;9.93;;;6.40;70.00;;;;;;5015987;28;20236;-57